Time;durP1;ratioP1;P1;durP2;ratioP2;P2;SDS_P1;SDS_P2;PMS_P1;PMS_P2;Temp;Humidity;BMP_temperature;BMP_pressure;BME280_temperature;BME280_humidity;BME280_pressure;Samples;Min_cycle;Max_cycle;Signal;HPM_P1;HPM_P2
2021/07/06 05:13:26;;;;;;;4.95;3.37;;;;;;;20.80;84.04;100197.55;1719574;82;21538;-71
2021/07/06 05:15:59;;;;;;;4.10;3.37;;;;;;;20.83;83.63;100193.95;1735949;82;21408;-71
2021/07/06 05:18:33;;;;;;;3.72;2.80;;;;;;;20.89;83.65;100191.50;1735296;82;21362;-66
2021/07/06 05:21:06;;;;;;;4.92;3.00;;;;;;;20.93;83.68;100191.40;1733956;82;21203;-68
2021/07/06 05:23:39;;;;;;;4.07;2.90;;;;;;;21.01;83.78;100191.20;1735263;82;21320;-69
2021/07/06 05:26:12;;;;;;;3.02;2.70;;;;;;;21.11;83.58;100193.78;1735895;82;21923;-68
2021/07/06 05:28:46;;;;;;;5.45;2.72;;;;;;;21.19;83.09;100189.59;1735093;82;21319;-71
2021/07/06 05:31:19;;;;;;;5.10;2.70;;;;;;;21.28;82.77;100187.55;1736044;82;21173;-68
2021/07/06 05:33:51;;;;;;;3.85;2.87;;;;;;;21.38;82.74;100183.42;1735269;82;21270;-68
2021/07/06 05:36:25;;;;;;;4.40;2.77;;;;;;;21.50;82.75;100183.59;1735890;82;22080;-68
2021/07/06 05:38:58;;;;;;;3.33;3.02;;;;;;;21.60;82.67;100178.66;1735178;82;21225;-69
2021/07/06 05:41:30;;;;;;;6.62;2.90;;;;;;;21.70;82.26;100180.38;1735945;82;21303;-67
2021/07/06 05:44:04;;;;;;;5.45;2.98;;;;;;;21.79;81.52;100180.45;1735019;82;22100;-67
2021/07/06 05:46:37;;;;;;;5.12;3.10;;;;;;;21.82;80.53;100184.54;1735845;82;21174;-71
2021/07/06 05:49:10;;;;;;;3.83;3.30;;;;;;;21.81;80.20;100177.56;1735160;82;21225;-67
2021/07/06 05:51:43;;;;;;;5.92;3.22;;;;;;;21.79;80.14;100173.78;1735999;82;22120;-68
2021/07/06 05:54:20;;;;;;;4.20;3.08;;;;;;;21.80;80.26;100177.27;1735303;82;22161;-68
2021/07/06 05:56:59;;;;;;;3.12;2.77;;;;;;;21.82;80.17;100174.70;1735989;82;21308;-68
2021/07/06 05:59:32;;;;;;;3.90;3.20;;;;;;;21.81;79.75;100174.39;1734947;82;21213;-67
2021/07/06 06:02:05;;;;;;;3.98;2.83;;;;;;;21.76;79.16;100169.37;1736093;82;22145;-68
2021/07/06 06:04:39;;;;;;;3.70;3.17;;;;;;;21.72;78.70;100178.32;1733295;82;21288;-68
2021/07/06 06:07:11;;;;;;;3.47;2.83;;;;;;;21.69;79.10;100178.73;1736011;82;21287;-69
2021/07/06 06:09:46;;;;;;;3.62;3.15;;;;;;;21.70;78.93;100176.89;1725713;82;21316;-70
2021/07/06 06:12:21;;;;;;;3.50;3.20;;;;;;;21.67;78.60;100176.80;1769499;79;21847;-69
2021/07/06 06:14:55;;;;;;;5.50;3.45;;;;;;;21.71;79.00;100182.54;1769700;81;21401;-67
2021/07/06 06:17:28;;;;;;;6.40;3.40;;;;;;;21.77;78.80;100188.34;1770756;81;21812;-66
2021/07/06 06:20:02;;;;;;;4.50;3.35;;;;;;;21.82;78.87;100182.70;1769438;81;21300;-67
2021/07/06 06:22:36;;;;;;;5.60;2.85;;;;;;;21.88;78.59;100185.05;1768494;81;21177;-68
2021/07/06 06:25:12;;;;;;;3.98;3.62;;;;;;;21.92;78.24;100187.11;1769200;81;21308;-71
2021/07/06 06:27:45;;;;;;;4.92;3.52;;;;;;;21.98;78.04;100192.92;1770134;81;21792;-69
2021/07/06 06:30:20;;;;;;;3.98;3.37;;;;;;;22.03;77.97;100199.77;1769078;81;21311;-68
2021/07/06 06:32:55;;;;;;;7.58;3.80;;;;;;;22.04;76.96;100208.05;1767840;81;22068;-67
2021/07/06 06:35:28;;;;;;;6.28;3.70;;;;;;;22.05;76.96;100216.87;1766928;81;22045;-69
2021/07/06 06:38:01;;;;;;;4.37;3.10;;;;;;;22.07;76.85;100206.81;1770349;81;21616;-72
2021/07/06 06:40:34;;;;;;;;;;;;;;;22.07;76.83;100212.14;1771706;81;21311;-72
2021/07/06 06:43:08;;;;;;;4.12;3.40;;;;;;;22.13;77.08;100208.65;1770159;81;20397;-69
2021/07/06 06:45:43;;;;;;;4.15;3.22;;;;;;;22.24;77.04;100214.64;1767114;81;21557;-73
2021/07/06 06:48:17;;;;;;;4.70;3.70;;;;;;;22.34;76.47;100217.67;1770138;81;21288;-73
2021/07/06 06:50:50;;;;;;;4.97;3.80;;;;;;;22.40;76.30;100225.35;1769234;81;22132;-67
2021/07/06 06:53:23;;;;;;;3.47;3.17;;;;;;;22.47;76.01;100231.47;1767943;81;21418;-69
2021/07/06 06:55:56;;;;;;;5.53;3.65;;;;;;;22.45;74.90;100233.00;1768992;81;21643;-66
2021/07/06 06:58:34;;;;;;;5.85;3.58;;;;;;;22.40;74.74;100241.36;1770753;81;21582;-66
2021/07/06 07:01:07;;;;;;;7.95;3.02;;;;;;;22.34;74.67;100246.19;1769485;81;21347;-69
2021/07/06 07:03:40;;;;;;;;;;;;;;;22.25;74.80;100249.63;1773007;81;21348;-67
2021/07/06 07:06:13;;;;;;;3.52;3.15;;;;;;;22.19;75.22;100250.99;1768969;81;20662;-71
2021/07/06 07:08:47;;;;;;;4.78;3.75;;;;;;;22.13;75.42;100249.98;1766708;80;21927;-71
2021/07/06 07:11:20;;;;;;;4.90;3.40;;;;;;;22.12;75.56;100257.66;1777255;79;21304;-67
2021/07/06 07:13:54;;;;;;;11.38;4.10;;;;;;;22.13;75.84;100256.64;1780051;80;21185;-69
2021/07/06 07:16:27;;;;;;;3.67;3.30;;;;;;;22.13;75.43;100263.31;1782908;80;21327;-69
2021/07/06 07:19:01;;;;;;;8.38;3.83;;;;;;;22.09;75.93;100258.90;1783883;80;21395;-68
2021/07/06 07:21:34;;;;;;;5.20;3.70;;;;;;;22.09;76.21;100265.56;1782593;80;21307;-68
2021/07/06 07:24:07;;;;;;;8.90;3.62;;;;;;;22.14;76.22;100269.75;1783916;80;21737;-68
2021/07/06 07:26:40;;;;;;;8.73;4.37;;;;;;;22.19;76.25;100273.66;1782395;80;21928;-68
2021/07/06 07:29:13;;;;;;;9.37;4.03;;;;;;;22.25;76.01;100280.80;1784013;80;21516;-72
2021/07/06 07:31:46;;;;;;;7.30;4.00;;;;;;;22.26;75.00;100285.12;1782356;80;22653;-68
2021/07/06 07:34:19;;;;;;;4.62;3.50;;;;;;;22.26;75.00;100285.12;1784025;80;21279;-67
2021/07/06 07:36:52;;;;;;;6.55;4.03;;;;;;;22.28;75.28;100295.05;1782936;80;21209;-68
2021/07/06 07:39:26;;;;;;;4.90;4.33;;;;;;;22.23;74.98;100295.69;1783892;80;21296;-68
2021/07/06 07:41:59;;;;;;;7.45;4.00;;;;;;;22.23;75.04;100290.36;1782607;80;21300;-70
2021/07/06 07:44:34;;;;;;;7.55;4.67;;;;;;;22.26;75.04;100297.91;1784167;80;21992;-68
2021/07/06 07:47:07;;;;;;;5.92;3.55;;;;;;;22.32;74.88;100305.59;1782656;80;21300;-69
2021/07/06 07:49:40;;;;;;;5.58;3.87;;;;;;;22.42;74.80;100315.31;1783938;80;21276;-69
2021/07/06 07:52:13;;;;;;;5.40;4.05;;;;;;;22.51;74.24;100318.87;1782541;80;21846;-69
2021/07/06 07:54:47;;;;;;;6.40;4.50;;;;;;;22.58;73.67;100321.50;1781831;80;21279;-70
2021/07/06 07:57:23;;;;;;;5.65;4.72;;;;;;;22.69;73.87;100320.34;1782788;80;21318;-67
2021/07/06 07:59:57;;;;;;;4.87;4.10;;;;;;;22.89;73.64;100328.25;1781752;80;22146;-68
2021/07/06 08:02:30;;;;;;;6.72;4.35;;;;;;;23.16;72.76;100323.58;1780521;80;21307;-68
2021/07/06 08:05:04;;;;;;;6.67;4.50;;;;;;;23.36;71.42;100328.27;1783930;80;21295;-68
2021/07/06 08:07:37;;;;;;;7.50;4.55;;;;;;;23.44;70.64;100330.18;1782670;80;21196;-68
2021/07/06 08:10:10;;;;;;;5.42;4.22;;;;;;;23.45;69.94;100327.79;1781785;79;21300;-66
2021/07/06 08:12:45;;;;;;;7.87;4.22;;;;;;;23.44;70.15;100326.68;1780106;80;21299;-66
2021/07/06 08:15:19;;;;;;;4.20;3.83;;;;;;;23.43;69.85;100336.55;1781694;80;21447;-68
2021/07/06 08:17:53;;;;;;;4.53;3.95;;;;;;;23.44;69.78;100341.38;1780246;80;22118;-67
2021/07/06 08:20:27;;;;;;;5.90;4.15;;;;;;;23.43;69.43;100339.73;1781747;80;21208;-67
2021/07/06 08:23:01;;;;;;;7.28;4.35;;;;;;;23.41;69.33;100335.95;1780247;80;21219;-67
2021/07/06 08:29:31;;;;;;;7.27;5.83;;;;;;;23.41;69.15;100345.81;1782544;80;20280;-66
2021/07/06 08:32:05;;;;;;;8.30;3.92;;;;;;;23.41;69.15;100345.81;1780920;80;21766;-66
2021/07/06 08:34:39;;;;;;;7.87;4.10;;;;;;;23.36;68.60;100353.14;1781781;80;21428;-68
2021/07/06 08:37:12;;;;;;;8.18;4.17;;;;;;;23.27;68.83;100354.41;1781192;80;21548;-67
2021/07/06 08:39:46;;;;;;;5.33;4.20;;;;;;;23.23;68.98;100359.07;1781723;80;21973;-70
2021/07/06 08:42:18;;;;;;;;;;;;;;;23.21;69.22;100355.30;1785610;80;21319;-70
2021/07/06 08:44:52;;;;;;;8.50;4.70;;;;;;;23.23;68.88;100358.56;1783862;80;20268;-68
2021/07/06 08:47:26;;;;;;;4.55;4.15;;;;;;;23.23;68.83;100362.56;1783323;80;21346;-66
2021/07/06 08:50:07;;;;;;;4.70;4.20;;;;;;;23.24;68.56;100360.69;1782206;80;21970;-69
2021/07/06 08:52:45;;;;;;;11.30;4.95;;;;;;;23.25;68.37;100363.16;1782849;80;21815;-68
2021/07/06 08:55:19;;;;;;;6.40;4.62;;;;;;;23.21;68.51;100369.16;1783695;80;21454;-71
2021/07/06 08:57:53;;;;;;;10.35;4.92;;;;;;;23.19;68.85;100368.02;1783034;80;21307;-71
2021/07/06 09:00:29;;;;;;;;;;;;;;;23.32;68.92;100367.13;1786583;80;21804;-67
2021/07/06 09:03:03;;;;;;;8.05;4.40;;;;;;;23.49;68.69;100360.77;1780536;80;20310;-67
2021/07/06 09:05:37;;;;;;;10.65;5.22;;;;;;;23.68;68.20;100363.80;1781766;80;21283;-67
2021/07/06 09:08:10;;;;;;;;;;;;;;;23.88;67.65;100361.23;1783261;80;21322;-68
2021/07/06 09:10:43;;;;;;;6.00;4.87;;;;;;;24.08;66.96;100364.59;1781596;79;20268;-68
2021/07/06 09:13:33;;;;;;;5.35;4.35;;;;;;;24.29;66.79;100361.20;1770754;80;21370;-70
2021/07/06 09:16:07;;;;;;;7.08;4.50;;;;;;;24.48;64.18;100351.59;1764937;81;21181;-68
2021/07/06 09:18:43;;;;;;;6.70;4.92;;;;;;;24.51;63.44;100356.50;1766228;81;22175;-67
2021/07/06 09:21:15;;;;;;;4.67;4.28;;;;;;;24.53;63.57;100360.28;1768257;81;21177;-67
2021/07/06 09:32:08;;;;;;;6.85;4.05;;;;;;;24.69;62.66;100361.83;1767909;81;21484;-68
2021/07/06 09:34:41;;;;;;;6.37;4.05;;;;;;;24.79;62.28;100356.52;1768043;81;21319;-66
2021/07/06 09:41:25;;;;;;;4.40;4.00;;;;;;;24.99;62.25;100353.03;1768175;81;21540;-67
2021/07/06 09:44:18;;;;;;;6.58;3.98;;;;;;;25.22;61.22;100351.24;1766754;81;21165;-66
2021/07/06 09:46:57;;;;;;;5.15;4.33;;;;;;;25.28;61.13;100353.03;1765184;80;21534;-67
2021/07/06 09:49:38;;;;;;;4.35;3.95;;;;;;;25.29;60.50;100347.16;1767966;81;21545;-66
2021/07/06 09:52:16;;;;;;;4.50;4.10;;;;;;;25.35;61.02;100342.20;1767945;81;22006;-68
2021/07/06 09:54:52;;;;;;;5.95;4.00;;;;;;;25.39;60.62;100344.19;1768085;81;21212;-66
2021/07/06 09:57:29;;;;;;;4.33;3.92;;;;;;;25.44;59.60;100346.20;1767883;81;21308;-67
2021/07/06 10:00:11;;;;;;;14.58;4.33;;;;;;;25.45;59.82;100341.15;1766548;81;21537;-66
2021/07/06 10:06:57;;;;;;;5.92;3.67;;;;;;;25.60;59.81;100340.70;1768242;81;21106;-65
2021/07/06 10:09:31;;;;;;;5.08;3.55;;;;;;;25.79;59.39;100351.63;1766436;80;21177;-65
2021/07/06 10:12:07;;;;;;;6.00;3.95;;;;;;;25.84;58.79;100343.15;1767070;81;21221;-69
2021/07/06 10:14:44;;;;;;;4.50;3.60;;;;;;;25.87;58.14;100341.35;1756501;80;21311;-67
2021/07/06 10:17:18;;;;;;;4.47;3.45;;;;;;;25.84;58.08;100345.83;1774872;80;21161;-69
2021/07/06 10:19:51;;;;;;;4.78;3.72;;;;;;;25.94;58.30;100350.61;1775387;80;21338;-68
2021/07/06 10:22:24;;;;;;;5.65;4.15;;;;;;;26.06;58.26;100344.20;1777481;80;21296;-68
2021/07/06 10:24:57;;;;;;;;;;;;;;;26.19;57.75;100343.17;1779819;80;21512;-70
2021/07/06 10:27:32;;;;;;;4.78;3.40;;;;;;;26.22;57.92;100350.77;1718062;80;20387;-67
2021/07/06 10:30:20;;;;;;;4.00;3.60;;;;;;;26.20;57.22;100357.42;1774656;80;22061;-69
2021/07/06 10:32:56;;;;;;;3.95;3.50;;;;;;;26.21;57.17;100357.69;1775862;80;21360;-72
2021/07/06 10:35:43;;;;;;;10.70;4.08;;;;;;;26.29;57.71;100360.02;1778410;80;21327;-70
2021/07/06 10:38:40;;;;;;;5.12;3.80;;;;;;;26.40;56.44;100357.31;1774782;80;21598;-69
2021/07/06 10:41:21;;;;;;;8.75;7.25;;;;;;;26.44;55.56;100363.84;1776171;80;21289;-70
2021/07/06 10:43:55;;;;;;;23.45;15.03;;;;;;;26.36;55.44;100366.91;1775164;80;21189;-70
2021/07/06 10:46:31;;;;;;;11.43;7.12;;;;;;;26.21;55.17;100374.61;1776288;80;21334;-69
2021/07/06 10:49:14;;;;;;;5.20;3.62;;;;;;;26.14;55.65;100367.21;1777837;80;21299;-71
2021/07/06 10:51:49;;;;;;;5.50;3.72;;;;;;;26.09;55.14;100379.14;1766742;80;22017;-70
2021/07/06 10:54:29;;;;;;;9.08;6.10;;;;;;;26.10;55.04;100371.39;1777380;80;21315;-74
2021/07/06 10:57:13;;;;;;;7.70;4.60;;;;;;;26.14;55.05;100378.47;1778435;80;21961;-70
2021/07/06 10:59:49;;;;;;;;;;;;;;;26.23;54.94;100383.77;1780369;80;21221;-68
2021/07/06 11:02:26;;;;;;;6.45;4.72;;;;;;;26.28;55.83;100379.33;1778417;80;20307;-67
2021/07/06 11:05:02;;;;;;;4.37;3.70;;;;;;;26.42;55.54;100379.37;1777129;80;21319;-69
2021/07/06 11:07:48;;;;;;;5.20;3.77;;;;;;;26.61;55.22;100378.68;1778712;80;21279;-70
2021/07/06 11:10:19;;;;;;;7.47;3.90;;;;;;;26.68;53.74;100384.21;1777483;80;21876;-71
2021/07/06 11:12:53;;;;;;;5.20;4.10;;;;;;;26.67;53.74;100390.66;1776836;80;21993;-67
2021/07/06 11:15:27;;;;;;;13.15;4.45;;;;;;;26.68;54.11;100391.45;1769987;80;21636;-67
2021/07/06 11:18:05;;;;;;;9.50;5.25;;;;;;;26.76;53.93;100384.92;1767853;81;21429;-69
2021/07/06 11:20:46;;;;;;;6.50;4.67;;;;;;;26.83;53.65;100388.28;1767026;81;21201;-67
2021/07/06 11:23:22;;;;;;;4.90;3.70;;;;;;;26.88;53.82;100387.05;1768171;81;21464;-67
2021/07/06 11:26:04;;;;;;;3.90;3.60;;;;;;;26.97;53.80;100383.73;1767025;80;21291;-69
2021/07/06 11:28:52;;;;;;;7.10;3.62;;;;;;;27.00;52.78;100383.27;1768047;81;21253;-67
2021/07/06 11:31:28;;;;;;;5.60;3.52;;;;;;;26.96;53.02;100382.64;1768084;81;21181;-67
2021/07/06 11:34:05;;;;;;;6.15;3.47;;;;;;;26.93;53.55;100386.63;1781731;80;21323;-67
2021/07/06 11:36:39;;;;;;;5.55;3.50;;;;;;;26.93;53.66;100386.63;1766409;81;21177;-69
2021/07/06 11:39:13;;;;;;;4.83;3.50;;;;;;;26.83;53.68;100392.31;1770237;81;21948;-68
2021/07/06 11:41:46;;;;;;;6.92;3.20;;;;;;;26.73;53.50;100385.66;1770252;81;21539;-70
2021/07/06 11:44:21;;;;;;;5.55;3.55;;;;;;;26.71;53.91;100395.01;1769808;81;21862;-68
2021/07/06 11:47:11;;;;;;;7.08;3.30;;;;;;;26.70;54.07;100396.87;1770168;81;21728;-67
2021/07/06 11:49:47;;;;;;;7.30;3.75;;;;;;;26.79;54.36;100393.85;1769909;81;21311;-69
2021/07/06 11:52:20;;;;;;;4.53;3.47;;;;;;;26.87;53.74;100401.55;1768112;81;21311;-68
2021/07/06 11:54:54;;;;;;;7.17;3.33;;;;;;;26.79;53.56;100393.85;1767375;81;22188;-68
2021/07/06 11:57:29;;;;;;;4.62;3.20;;;;;;;26.68;53.87;100397.64;1768586;81;21205;-65
2021/07/06 12:00:13;;;;;;;3.20;2.90;;;;;;;26.66;53.94;100393.55;1767895;81;22007;-65
2021/07/06 12:07:10;;;;;;;6.58;3.77;;;;;;;26.45;54.67;100400.90;1768051;81;21181;-67
2021/07/06 12:13:57;;;;;;;9.45;3.72;;;;;;;26.34;54.00;100402.56;1768237;81;21137;-68
2021/07/06 12:16:34;;;;;;;3.80;2.83;;;;;;;26.34;54.00;100402.56;1767247;80;21220;-71
2021/07/06 12:19:11;;;;;;;5.28;3.30;;;;;;;26.26;54.48;100411.48;1770465;81;22141;-70
2021/07/06 12:21:49;;;;;;;5.92;3.20;;;;;;;26.13;54.63;100405.02;1769059;81;21312;-69
2021/07/06 12:24:27;;;;;;;5.62;2.90;;;;;;;26.03;55.25;100406.37;1770816;81;21197;-69
2021/07/06 12:26:59;;;;;;;7.10;3.25;;;;;;;25.96;56.05;100403.53;1768876;81;21973;-68
2021/07/06 12:33:29;;;;;;;5.70;3.02;;;;;;;25.99;56.94;100399.84;1769018;81;20201;-69
2021/07/06 12:36:02;;;;;;;;;;;;;;;25.97;57.15;100399.27;1769888;81;21319;-69
2021/07/06 12:38:35;;;;;;;5.25;3.52;;;;;;;25.99;57.54;100397.68;1768069;81;20201;-67
2021/07/06 12:41:19;;;;;;;3.77;3.27;;;;;;;25.95;57.70;100401.37;1767688;81;21248;-66
2021/07/06 12:43:59;;;;;;;6.28;3.47;;;;;;;25.92;57.64;100404.50;1768209;81;21304;-72
2021/07/06 12:46:33;;;;;;;8.00;3.65;;;;;;;25.90;57.53;100403.93;1768877;81;21730;-67
2021/07/06 12:49:07;;;;;;;5.35;3.30;;;;;;;25.84;57.83;100404.84;1768253;81;21453;-69
2021/07/06 12:51:42;;;;;;;;;;;;;;;25.80;58.41;100417.60;1772128;81;21181;-67
2021/07/06 12:54:15;;;;;;;5.00;3.30;;;;;;;25.75;58.77;100409.43;1766626;81;20288;-67
2021/07/06 12:56:48;;;;;;;8.55;3.50;;;;;;;25.70;58.79;100407.44;1766832;81;21323;-68
2021/07/06 12:59:26;;;;;;;3.50;3.05;;;;;;;25.67;59.63;100421.34;1757548;81;22012;-71
2021/07/06 13:01:59;;;;;;;7.85;3.40;;;;;;;25.64;60.28;100416.94;1769375;81;21308;-71
2021/07/06 13:04:57;;;;;;;3.87;3.25;;;;;;;25.61;60.52;100418.22;1758028;81;21876;-71
2021/07/06 13:07:31;;;;;;;8.43;3.17;;;;;;;25.59;60.53;100418.16;1768241;81;21664;-67
2021/07/06 13:10:26;;;;;;;4.42;3.02;;;;;;;25.49;60.74;100421.39;1768144;81;22192;-67
2021/07/06 13:13:10;;;;;;;4.03;3.10;;;;;;;25.42;60.94;100419.30;1766523;81;21288;-71
2021/07/06 13:15:50;;;;;;;4.65;3.20;;;;;;;25.34;60.87;100420.95;1765956;80;21224;-67
2021/07/06 13:18:37;;;;;;;3.77;3.10;;;;;;;25.22;61.31;100422.80;1770086;80;21216;-70
2021/07/06 13:21:18;;;;;;;4.47;2.80;;;;;;;25.15;61.73;100423.41;1766188;80;21319;-69
2021/07/06 13:23:52;;;;;;;4.37;2.90;;;;;;;25.07;62.31;100424.53;1781795;80;21314;-70
2021/07/06 13:26:25;;;;;;;5.47;3.17;;;;;;;25.06;62.68;100423.41;1783087;80;21314;-70
2021/07/06 13:28:59;;;;;;;5.58;3.00;;;;;;;25.05;63.13;100419.11;1783906;80;21227;-67
2021/07/06 13:31:33;;;;;;;4.53;3.05;;;;;;;25.08;62.99;100424.81;1782392;80;21196;-71
2021/07/06 13:34:08;;;;;;;4.17;3.12;;;;;;;25.14;62.34;100426.61;1784121;80;21339;-69
2021/07/06 13:40:57;;;;;;;3.45;3.15;;;;;;;25.18;62.93;100427.78;1784028;80;21109;-68
2021/07/06 13:43:28;;;;;;;4.70;3.10;;;;;;;25.26;62.86;100427.98;1782398;80;21287;-68
2021/07/06 13:46:04;;;;;;;3.87;2.95;;;;;;;25.31;62.34;100422.25;1781971;80;21546;-69
2021/07/06 13:48:37;;;;;;;4.87;3.22;;;;;;;25.28;61.92;100432.08;1780254;80;21458;-69
2021/07/06 13:55:08;;;;;;;5.67;3.08;;;;;;;25.20;62.17;100434.23;1781854;80;20376;-71
